< < Back
Terminal Aerodrome Forecast


Current Version              Previous Versions:   1  2  3  4  5  6  7  8  9  

Terminal Aerodrome Forecast

339
FTUS42 KTAE 231100
TAFTLH
TAF
KTLH 231120Z 2312/2412 00000KT P6SM FEW250
     FM231400 29007KT P6SM SCT040 SCT250
     FM240300 28003KT P6SM FEW250=

Latest METAR

188
SAUS80 KWBC 231700
MTRTLH
METAR KTLH 231653Z 02007KT 10SM SCT050 37/23 A2997 RMK AO2 SLP148
T03670228


USA.gov is the U.S. government's official web portal to all federal, state and local government web resources and services.